createdAt,value
2023-02-13T00:00:19.679Z,23.88
2023-02-13T00:02:46.336Z,29.52
2023-02-13T00:05:12.834Z,24.63
2023-02-13T00:07:39.447Z,26.77
2023-02-13T00:10:06.876Z,24.38
2023-02-13T00:12:35.837Z,25.50
2023-02-13T00:15:02.676Z,34.78
2023-02-13T00:17:29.336Z,27.77
2023-02-13T00:19:55.812Z,31.70
2023-02-13T00:22:22.289Z,26.80
2023-02-13T00:24:51.287Z,26.95
2023-02-13T00:27:20.162Z,22.60
2023-02-13T00:29:47.120Z,29.10
2023-02-13T00:32:14.868Z,29.73
2023-02-13T00:34:41.385Z,24.63
2023-02-13T00:37:07.851Z,26.55
2023-02-13T00:39:34.263Z,27.42
2023-02-13T00:42:00.721Z,25.60
2023-02-13T00:44:29.813Z,27.13
2023-02-13T00:46:56.264Z,23.65
2023-02-13T00:49:22.809Z,33.80
2023-02-13T00:51:51.612Z,30.40
2023-02-13T00:54:18.103Z,32.92
2023-02-13T00:56:44.577Z,34.47
2023-02-13T00:59:11.117Z,33.97
2023-02-13T01:01:37.720Z,31.65
2023-02-13T01:04:04.275Z,27.83
2023-02-13T01:06:30.772Z,34.80
2023-02-13T01:08:57.226Z,28.52
2023-02-13T01:11:23.828Z,24.98
2023-02-13T01:13:50.269Z,28.13
2023-02-13T01:16:17.893Z,27.63
2023-02-13T01:18:44.647Z,29.40
2023-02-13T01:21:17.721Z,23.52
2023-02-13T01:23:44.777Z,39.25
2023-02-13T01:26:16.660Z,28.02
2023-02-13T01:28:43.284Z,28.30
2023-02-13T01:31:09.844Z,29.92
2023-02-13T01:33:36.425Z,46.40
2023-02-13T01:36:11.028Z,40.67
2023-02-13T01:38:37.978Z,29.60
2023-02-13T01:41:04.613Z,31.25
2023-02-13T01:44:04.029Z,26.52
2023-02-13T01:46:30.556Z,41.33
2023-02-13T01:49:05.472Z,27.35
2023-02-13T01:51:35.262Z,27.98
2023-02-13T01:54:10.487Z,21.50
2023-02-13T01:56:50.369Z,25.20
2023-02-13T01:59:21.009Z,26.73
2023-02-13T02:01:48.042Z,29.85
2023-02-13T02:04:20.008Z,28.67
2023-02-13T02:06:51.955Z,31.02
2023-02-13T02:09:24.242Z,23.05
2023-02-13T02:11:56.555Z,22.10
2023-02-13T02:14:23.149Z,19.27
2023-02-13T02:16:49.646Z,22.00
2023-02-13T02:19:44.839Z,28.33
2023-02-13T02:22:49.273Z,22.25
2023-02-13T02:28:03.134Z,20.42
2023-02-13T02:31:22.101Z,22.02
2023-02-13T02:33:57.517Z,19.35
2023-02-13T02:36:57.661Z,28.38
2023-02-13T02:39:38.064Z,20.35
2023-02-13T02:42:28.602Z,24.02
2023-02-13T02:45:01.413Z,22.08
2023-02-13T02:48:09.743Z,19.55
2023-02-13T02:50:43.665Z,21.58
2023-02-13T02:53:37.747Z,21.15
2023-02-13T02:56:15.100Z,31.00
2023-02-13T02:59:05.158Z,30.63
2023-02-13T03:01:53.013Z,18.42
2023-02-13T03:04:44.327Z,21.77
2023-02-13T03:07:14.975Z,25.38
2023-02-13T03:10:05.755Z,24.40
2023-02-13T03:13:06.794Z,20.90
2023-02-13T03:15:35.943Z,20.35
2023-02-13T03:18:20.854Z,25.88
2023-02-13T03:21:29.943Z,32.17
2023-02-13T03:24:09.879Z,27.50
2023-02-13T03:26:52.039Z,25.27
2023-02-13T03:29:52.460Z,24.48
2023-02-13T03:32:33.476Z,26.50
2023-02-13T03:35:27.853Z,23.52
2023-02-13T03:38:00.934Z,28.58
2023-02-13T03:40:59.708Z,29.10
2023-02-13T03:43:32.863Z,31.05
2023-02-13T03:46:02.485Z,38.50
2023-02-13T03:48:56.880Z,33.35
2023-02-13T03:51:53.534Z,35.47
2023-02-13T03:54:49.147Z,36.55
2023-02-13T03:57:38.517Z,37.80
2023-02-13T04:00:11.404Z,33.42
2023-02-13T04:02:45.171Z,33.92
2023-02-13T04:05:17.451Z,34.60
2023-02-13T04:07:44.631Z,34.10
2023-02-13T04:10:17.518Z,32.55
2023-02-13T04:12:59.139Z,31.10
2023-02-13T04:16:04.388Z,25.90
2023-02-13T04:18:33.083Z,29.95
2023-02-13T04:21:07.438Z,29.42
2023-02-13T04:23:36.044Z,26.90
2023-02-13T04:26:07.980Z,28.92
2023-02-13T04:28:34.615Z,27.15
2023-02-13T04:31:01.681Z,31.35
2023-02-13T04:33:28.560Z,25.13
2023-02-13T04:35:55.224Z,32.55
2023-02-13T04:38:21.795Z,46.72
2023-02-13T04:40:50.539Z,28.58
2023-02-13T04:43:17.095Z,25.73
2023-02-13T04:45:43.648Z,29.90
2023-02-13T04:48:10.249Z,40.35
2023-02-13T04:50:36.820Z,27.92
2023-02-13T04:53:03.405Z,24.42
2023-02-13T04:55:30.456Z,25.90
2023-02-13T04:57:57.249Z,31.40
2023-02-13T05:00:26.295Z,25.52
2023-02-13T05:02:52.976Z,24.63
2023-02-13T05:05:20.597Z,31.75
2023-02-13T05:07:47.127Z,31.13
2023-02-13T05:10:13.907Z,34.97
2023-02-13T05:12:40.474Z,29.00
2023-02-13T05:15:07.458Z,26.92
2023-02-13T05:17:33.984Z,26.58
2023-02-13T05:20:00.637Z,29.80
2023-02-13T05:22:48.273Z,35.17
2023-02-13T05:25:14.812Z,34.60
2023-02-13T05:27:41.422Z,34.40
2023-02-13T05:30:08.520Z,37.55
2023-02-13T05:32:35.058Z,36.05
2023-02-13T05:35:04.047Z,51.47
2023-02-13T05:37:34.011Z,48.35
2023-02-13T05:40:00.560Z,45.95
2023-02-13T05:42:27.247Z,47.63
2023-02-13T05:44:53.810Z,40.40
2023-02-13T05:47:20.365Z,41.08
2023-02-13T05:49:46.886Z,42.97
2023-02-13T05:52:13.537Z,37.58
2023-02-13T05:54:42.129Z,36.10
2023-02-13T05:57:08.754Z,38.22
2023-02-13T05:59:35.317Z,35.92
2023-02-13T06:02:01.840Z,38.15
2023-02-13T06:04:28.396Z,39.33
2023-02-13T06:06:54.933Z,34.35
2023-02-13T06:09:22.002Z,34.72
2023-02-13T06:11:48.943Z,39.10
2023-02-13T06:14:15.647Z,42.67
2023-02-13T06:16:42.505Z,37.03
2023-02-13T06:19:09.340Z,53.60
2023-02-13T06:21:38.005Z,38.15
2023-02-13T06:24:08.235Z,37.67
2023-02-13T06:26:35.224Z,46.00
2023-02-13T06:29:01.794Z,37.55
2023-02-13T06:31:30.684Z,59.63
2023-02-13T06:34:00.221Z,38.58
2023-02-13T06:36:26.794Z,40.47
2023-02-13T06:38:56.388Z,45.75
2023-02-13T06:41:23.006Z,60.20
2023-02-13T06:43:49.566Z,47.63
2023-02-13T06:46:16.102Z,55.47
2023-02-13T06:48:42.696Z,42.55
2023-02-13T06:51:09.260Z,41.30
2023-02-13T06:53:35.814Z,45.03
2023-02-13T06:56:06.311Z,47.28
2023-02-13T06:58:34.043Z,40.05
2023-02-13T07:01:00.888Z,48.58
2023-02-13T07:03:27.724Z,36.10
2023-02-13T07:05:57.034Z,47.75
2023-02-13T07:08:23.618Z,39.55
2023-02-13T07:10:52.394Z,40.97
2023-02-13T07:13:18.924Z,44.85
2023-02-13T07:15:45.932Z,42.15
2023-02-13T07:18:12.562Z,42.05
2023-02-13T07:20:39.303Z,44.45
2023-02-13T07:23:07.356Z,45.13
2023-02-13T07:25:34.280Z,34.95
2023-02-13T07:28:05.478Z,41.10
2023-02-13T07:30:33.005Z,42.20
2023-02-13T07:33:03.659Z,35.83
2023-02-13T07:35:30.929Z,66.57
2023-02-13T07:37:57.517Z,39.92
2023-02-13T07:40:24.058Z,37.33
2023-02-13T07:42:50.590Z,43.72
2023-02-13T07:45:17.269Z,49.35
2023-02-13T07:47:44.128Z,53.78
2023-02-13T07:50:14.165Z,41.58
2023-02-13T07:52:42.992Z,37.15
2023-02-13T07:55:11.604Z,38.40
2023-02-13T07:57:38.206Z,33.25
2023-02-13T08:00:05.484Z,39.50
2023-02-13T08:02:32.084Z,43.33
2023-02-13T08:04:58.616Z,43.97
2023-02-13T08:07:25.175Z,62.78
2023-02-13T08:10:10.259Z,49.80
2023-02-13T08:12:36.952Z,57.08
2023-02-13T08:15:04.209Z,66.38
2023-02-13T08:17:30.767Z,58.67
2023-02-13T08:19:57.739Z,51.03
2023-02-13T08:22:24.227Z,57.55
2023-02-13T08:24:50.733Z,57.40
2023-02-13T08:27:17.276Z,51.28
2023-02-13T08:29:43.941Z,52.85
2023-02-13T08:32:12.665Z,50.22
2023-02-13T08:34:42.530Z,52.17
2023-02-13T08:37:09.059Z,51.88
2023-02-13T08:39:35.566Z,49.40
2023-02-13T08:42:02.177Z,58.13
2023-02-13T08:44:28.852Z,55.55
2023-02-13T08:46:56.147Z,57.17
2023-02-13T08:49:23.535Z,61.60
2023-02-13T08:51:50.886Z,50.40
2023-02-13T08:54:17.481Z,53.40
2023-02-13T08:56:44.003Z,68.25
2023-02-13T08:59:10.438Z,65.55
2023-02-13T09:01:36.995Z,65.70
2023-02-13T09:04:03.604Z,65.22
2023-02-13T09:06:30.242Z,78.00
2023-02-13T09:08:56.709Z,72.40
2023-02-13T09:11:23.577Z,59.45
2023-02-13T09:13:53.382Z,76.88
2023-02-13T09:16:19.981Z,67.32
2023-02-13T09:18:51.132Z,79.60
2023-02-13T09:21:19.786Z,66.55
2023-02-13T09:23:46.316Z,62.70
2023-02-13T09:26:15.312Z,82.28
2023-02-13T09:28:42.888Z,64.85
2023-02-13T09:31:15.271Z,64.30
2023-02-13T09:33:45.200Z,67.47
2023-02-13T09:36:19.235Z,69.07
2023-02-13T09:38:47.529Z,69.18
2023-02-13T09:41:25.252Z,69.72
2023-02-13T09:44:36.375Z,69.80
2023-02-13T09:47:11.755Z,78.05
2023-02-13T09:49:44.127Z,82.50
2023-02-13T09:52:10.773Z,76.60
2023-02-13T09:54:39.868Z,76.55
2023-02-13T09:57:31.376Z,76.47
2023-02-13T10:00:23.967Z,85.10
2023-02-13T10:02:56.514Z,77.05
2023-02-13T10:05:57.669Z,80.70
2023-02-13T10:09:12.845Z,77.43
2023-02-13T10:11:45.509Z,77.93
2023-02-13T10:14:18.641Z,90.43
2023-02-13T10:16:55.802Z,77.25
2023-02-13T10:19:37.263Z,73.25
2023-02-13T10:22:23.523Z,85.40
2023-02-13T10:25:20.486Z,80.25
2023-02-13T10:27:52.497Z,90.03
2023-02-13T10:30:22.349Z,87.07
2023-02-13T10:33:19.411Z,96.80
2023-02-13T10:35:59.353Z,90.75
2023-02-13T10:38:35.921Z,88.03
2023-02-13T10:41:24.058Z,88.10
2023-02-13T10:44:07.943Z,91.50
2023-02-13T10:49:57.233Z,98.35
2023-02-13T10:52:43.573Z,95.78
2023-02-13T10:55:40.960Z,103.43
2023-02-13T10:58:26.140Z,102.75
2023-02-13T11:01:00.630Z,95.22
2023-02-13T11:03:29.524Z,110.70
2023-02-13T11:05:58.199Z,110.20
2023-02-13T11:08:39.801Z,106.57
2023-02-13T11:11:39.932Z,105.00
2023-02-13T11:14:14.466Z,102.82
2023-02-13T11:17:09.730Z,105.97
2023-02-13T11:19:51.567Z,109.07
2023-02-13T11:22:42.454Z,115.05
2023-02-13T11:25:31.179Z,119.78
2023-02-13T11:28:19.336Z,106.13
2023-02-13T11:30:45.833Z,109.45
2023-02-13T11:33:23.059Z,111.97
2023-02-13T11:35:49.550Z,107.13
2023-02-13T11:38:16.080Z,104.30
2023-02-13T11:40:45.096Z,108.38
2023-02-13T11:43:35.283Z,116.40
2023-02-13T11:46:04.835Z,117.60
2023-02-13T11:48:34.110Z,116.00
2023-02-13T11:51:01.174Z,104.00
2023-02-13T11:53:31.692Z,111.75
2023-02-13T11:56:11.830Z,110.95
2023-02-13T11:58:39.212Z,121.90
2023-02-13T12:01:10.403Z,108.90
2023-02-13T12:03:38.746Z,116.50
2023-02-13T12:06:12.971Z,126.88
2023-02-13T12:08:41.404Z,119.82
2023-02-13T12:11:31.157Z,120.80
2023-02-13T12:13:58.136Z,126.93
2023-02-13T12:16:40.208Z,121.10
2023-02-13T12:19:13.194Z,114.53
2023-02-13T12:21:50.150Z,118.13
2023-02-13T12:24:19.627Z,114.57
2023-02-13T12:26:52.379Z,104.00
2023-02-13T12:29:57.231Z,79.85
2023-02-13T12:32:35.392Z,94.18
2023-02-13T12:35:47.486Z,78.20
2023-02-13T12:38:33.594Z,68.93
2023-02-13T12:41:18.814Z,63.20
2023-02-13T12:44:26.311Z,58.08
2023-02-13T12:47:06.805Z,54.42
2023-02-13T12:49:48.137Z,53.53
2023-02-13T12:52:33.200Z,55.35
2023-02-13T12:55:30.238Z,51.75
2023-02-13T12:58:05.774Z,53.40
2023-02-13T13:00:45.904Z,55.10
2023-02-13T13:03:34.388Z,45.25
2023-02-13T13:06:19.670Z,49.15
2023-02-13T13:09:13.605Z,45.60
2023-02-13T13:11:43.111Z,41.63
2023-02-13T13:14:23.942Z,42.88
2023-02-13T13:17:02.059Z,38.13
2023-02-13T13:19:56.865Z,37.50
2023-02-13T13:22:27.885Z,34.75
2023-02-13T13:25:14.301Z,32.88
2023-02-13T13:27:45.541Z,36.25
2023-02-13T13:30:28.788Z,32.17
2023-02-13T13:33:04.980Z,33.00
2023-02-13T13:35:37.877Z,33.55
2023-02-13T13:38:25.369Z,35.30
2023-02-13T13:41:18.085Z,34.60
2023-02-13T13:44:15.027Z,34.38
2023-02-13T13:46:58.458Z,33.20
2023-02-13T13:49:34.188Z,33.80
2023-02-13T13:52:21.618Z,40.30
2023-02-13T13:54:54.245Z,35.55
2023-02-13T13:57:24.551Z,34.08
2023-02-13T14:00:10.489Z,32.90
2023-02-13T14:02:52.124Z,48.42
2023-02-13T14:05:27.419Z,34.67
2023-02-13T14:08:06.361Z,34.55
2023-02-13T14:10:33.078Z,34.15
2023-02-13T14:13:02.626Z,33.03
2023-02-13T14:15:38.200Z,32.72
2023-02-13T14:18:19.161Z,33.20
2023-02-13T14:20:51.628Z,34.08
2023-02-13T14:23:36.581Z,31.65
2023-02-13T14:26:15.133Z,32.92
2023-02-13T14:28:57.123Z,34.92
2023-02-13T14:31:28.956Z,30.45
2023-02-13T14:33:58.319Z,29.25
2023-02-13T14:36:32.262Z,32.47
2023-02-13T14:39:22.999Z,31.73
2023-02-13T14:41:55.333Z,29.50
2023-02-13T14:44:37.384Z,30.60
2023-02-13T14:47:35.130Z,187.85
2023-02-13T14:50:04.867Z,36.03
2023-02-13T14:52:46.515Z,30.85
2023-02-13T14:55:34.327Z,30.63
2023-02-13T14:58:07.685Z,34.92
2023-02-13T15:00:43.093Z,38.15
2023-02-13T15:03:25.066Z,35.53
2023-02-13T15:05:54.368Z,39.28
2023-02-13T15:08:24.134Z,34.50
2023-02-13T15:10:53.471Z,35.40
2023-02-13T15:13:33.179Z,32.97
2023-02-13T15:16:05.333Z,55.22
2023-02-13T15:18:40.831Z,46.75
2023-02-13T15:21:18.711Z,39.13
2023-02-13T15:23:55.521Z,33.92
2023-02-13T15:26:24.346Z,36.67
2023-02-13T15:29:25.930Z,35.85
2023-02-13T15:31:56.193Z,36.42
2023-02-13T15:34:24.680Z,40.90
2023-02-13T15:36:52.165Z,43.40
2023-02-13T15:39:23.936Z,39.47
2023-02-13T15:41:58.161Z,43.85
2023-02-13T15:44:36.671Z,38.53
2023-02-13T15:47:09.809Z,39.17
2023-02-13T15:49:43.537Z,43.55
2023-02-13T15:54:49.579Z,39.65
2023-02-13T15:57:16.772Z,43.70
2023-02-13T15:59:43.648Z,40.25
2023-02-13T16:02:47.814Z,42.88
2023-02-13T16:05:17.137Z,39.72
2023-02-13T16:07:53.650Z,38.47
2023-02-13T16:10:36.648Z,39.95
2023-02-13T16:13:05.805Z,40.60
2023-02-13T16:15:36.638Z,43.55
2023-02-13T16:18:04.072Z,43.22
2023-02-13T16:20:34.117Z,39.42
2023-02-13T16:23:21.087Z,40.78
2023-02-13T16:25:48.718Z,42.40
2023-02-13T16:28:19.875Z,44.17
2023-02-13T16:30:57.109Z,44.97
2023-02-13T16:33:28.448Z,42.30
2023-02-13T16:36:00.417Z,47.20
2023-02-13T16:38:35.933Z,49.97
2023-02-13T16:41:04.375Z,49.85
2023-02-13T16:43:38.735Z,51.88
2023-02-13T16:46:20.069Z,46.58
2023-02-13T16:49:01.894Z,44.25
2023-02-13T16:51:36.719Z,48.08
2023-02-13T16:54:15.733Z,52.15
2023-02-13T16:56:47.073Z,51.10
2023-02-13T16:59:38.338Z,51.85
2023-02-13T17:02:14.400Z,47.40
2023-02-13T17:05:05.327Z,59.08
2023-02-13T17:07:36.338Z,72.60
2023-02-13T17:10:07.012Z,50.03
2023-02-13T17:12:37.445Z,42.83
2023-02-13T17:15:05.120Z,37.83
2023-02-13T17:17:34.862Z,37.75
2023-02-13T17:20:04.108Z,41.17
2023-02-13T17:22:40.258Z,44.30
2023-02-13T17:25:15.851Z,43.30
2023-02-13T17:27:43.063Z,42.63
2023-02-13T17:30:15.439Z,43.00
2023-02-13T17:32:42.537Z,42.67
2023-02-13T17:35:11.261Z,45.50
2023-02-13T17:37:38.508Z,43.00
2023-02-13T17:40:05.682Z,51.28
2023-02-13T17:42:36.327Z,43.78
2023-02-13T17:45:02.906Z,48.55
2023-02-13T17:47:30.446Z,50.40
2023-02-13T17:50:08.269Z,45.33
2023-02-13T17:52:35.711Z,44.17
2023-02-13T17:55:04.882Z,49.20
2023-02-13T17:57:31.386Z,49.28
2023-02-13T17:59:59.193Z,48.83
2023-02-13T18:02:27.200Z,46.15
2023-02-13T18:04:53.771Z,45.67
2023-02-13T18:07:22.881Z,46.75
2023-02-13T18:09:49.454Z,51.80
2023-02-13T18:12:19.063Z,54.35
2023-02-13T18:14:45.882Z,51.67
2023-02-13T18:17:12.641Z,55.45
2023-02-13T18:19:39.600Z,56.40
2023-02-13T18:22:07.854Z,52.78
2023-02-13T18:24:36.522Z,46.67
2023-02-13T18:27:05.490Z,44.95
2023-02-13T18:29:32.011Z,54.95
2023-02-13T18:31:58.583Z,49.97
2023-02-13T18:34:25.179Z,43.22
2023-02-13T18:36:51.828Z,46.25
2023-02-13T18:39:20.875Z,42.13
2023-02-13T18:41:50.400Z,40.58
2023-02-13T18:44:27.007Z,45.05
2023-02-13T18:46:54.508Z,45.03
2023-02-13T18:49:21.026Z,46.53
2023-02-13T18:51:47.600Z,46.13
2023-02-13T18:54:14.165Z,45.03
2023-02-13T18:56:40.635Z,45.67
2023-02-13T18:59:07.164Z,45.05
2023-02-13T19:01:35.365Z,49.28
2023-02-13T19:04:02.938Z,49.30
2023-02-13T19:06:32.442Z,47.75
2023-02-13T19:08:59.564Z,49.50
2023-02-13T19:11:27.167Z,49.33
2023-02-13T19:14:00.444Z,49.75
2023-02-13T19:16:29.278Z,49.90
2023-02-13T19:18:58.711Z,59.67
2023-02-13T19:21:28.348Z,51.95
2023-02-13T19:23:55.568Z,54.97
2023-02-13T19:26:24.240Z,53.13
2023-02-13T19:28:51.101Z,49.75
2023-02-13T19:31:24.996Z,54.03
2023-02-13T19:33:52.318Z,52.40
2023-02-13T19:36:21.422Z,50.75
2023-02-13T19:38:52.776Z,61.90
2023-02-13T19:41:19.362Z,78.32
2023-02-13T19:43:53.591Z,67.20
2023-02-13T19:46:26.879Z,79.47
2023-02-13T19:48:55.867Z,91.57
2023-02-13T19:51:25.209Z,111.55
2023-02-13T19:53:59.051Z,132.70
2023-02-13T19:56:27.423Z,119.70
2023-02-13T19:58:56.501Z,113.05
2023-02-13T20:01:25.340Z,73.53
2023-02-13T20:03:52.613Z,95.97
2023-02-13T20:06:33.373Z,114.75
2023-02-13T20:09:02.082Z,95.20
2023-02-13T20:11:31.186Z,84.53
2023-02-13T20:14:01.715Z,107.85
2023-02-13T20:16:32.807Z,107.50
2023-02-13T20:19:01.755Z,117.18
2023-02-13T20:21:28.228Z,103.50
2023-02-13T20:23:54.639Z,78.28
2023-02-13T20:26:21.273Z,87.57
2023-02-13T20:28:48.233Z,87.10
2023-02-13T20:31:16.449Z,87.28
2023-02-13T20:33:46.629Z,85.03
2023-02-13T20:36:19.501Z,91.15
2023-02-13T20:38:46.196Z,89.15
2023-02-13T20:41:15.870Z,79.03
2023-02-13T20:43:42.999Z,80.10
2023-02-13T20:46:10.414Z,87.93
2023-02-13T20:48:37.732Z,79.63
2023-02-13T20:51:07.407Z,92.03
2023-02-13T20:53:34.882Z,79.78
2023-02-13T20:56:13.366Z,137.90
2023-02-13T20:58:41.701Z,112.63
2023-02-13T21:01:18.314Z,86.47
2023-02-13T21:03:47.841Z,76.80
2023-02-13T21:06:14.520Z,71.63
2023-02-13T21:08:43.140Z,79.75
2023-02-13T21:11:11.951Z,78.95
2023-02-13T21:13:40.199Z,143.57
2023-02-13T21:16:14.328Z,127.53
2023-02-13T21:18:42.118Z,99.10
2023-02-13T21:21:10.867Z,76.10
2023-02-13T21:23:39.817Z,69.05
2023-02-13T21:26:13.115Z,66.32
2023-02-13T21:28:40.880Z,68.97
2023-02-13T21:31:08.672Z,65.25
2023-02-13T21:33:35.265Z,67.38
2023-02-13T21:36:03.495Z,66.00
2023-02-13T21:38:30.169Z,73.18
2023-02-13T21:41:06.601Z,68.40
2023-02-13T21:43:37.684Z,72.20
2023-02-13T21:46:13.701Z,67.80
2023-02-13T21:48:41.209Z,66.05
2023-02-13T21:51:10.463Z,66.93
2023-02-13T21:53:37.699Z,69.57
2023-02-13T21:56:10.772Z,79.35
2023-02-13T21:58:39.520Z,71.50
2023-02-13T22:01:25.945Z,72.15
2023-02-13T22:04:00.314Z,66.70
2023-02-13T22:06:30.284Z,74.20
2023-02-13T22:09:02.278Z,88.25
2023-02-13T22:11:29.094Z,93.82
2023-02-13T22:13:57.195Z,97.78
2023-02-13T22:16:23.940Z,180.20
2023-02-13T22:18:50.681Z,107.60
2023-02-13T22:21:19.501Z,83.85
2023-02-13T22:23:47.322Z,66.68
2023-02-13T22:26:23.996Z,57.28
2023-02-13T22:28:51.877Z,48.95
2023-02-13T22:31:19.138Z,47.72
2023-02-13T22:33:55.324Z,50.75
2023-02-13T22:36:29.278Z,49.63
2023-02-13T22:38:55.815Z,52.22
2023-02-13T22:41:26.753Z,55.50
2023-02-13T22:43:53.558Z,59.38
2023-02-13T22:46:23.348Z,65.10
2023-02-13T22:48:53.249Z,65.45
2023-02-13T22:51:31.685Z,58.17
2023-02-13T22:53:59.204Z,61.28
2023-02-13T22:56:26.817Z,63.45
2023-02-13T22:58:53.613Z,53.60
2023-02-13T23:01:22.134Z,51.45
2023-02-13T23:03:51.350Z,54.05
2023-02-13T23:06:18.502Z,54.67
2023-02-13T23:08:45.262Z,56.75
2023-02-13T23:11:33.406Z,54.13
2023-02-13T23:14:00.247Z,63.22
2023-02-13T23:16:27.508Z,61.15
2023-02-13T23:18:56.580Z,59.92
2023-02-13T23:21:24.067Z,61.15
2023-02-13T23:23:50.970Z,58.42
2023-02-13T23:26:17.526Z,63.00
2023-02-13T23:28:44.003Z,60.58
2023-02-13T23:31:10.628Z,63.10
2023-02-13T23:33:37.146Z,65.45
2023-02-13T23:36:03.860Z,61.70
2023-02-13T23:38:30.548Z,55.00
2023-02-13T23:40:57.272Z,55.95
2023-02-13T23:43:23.909Z,60.70
2023-02-13T23:45:50.361Z,56.08
2023-02-13T23:48:16.856Z,53.83
2023-02-13T23:50:47.385Z,51.83
2023-02-13T23:53:14.120Z,53.88
2023-02-13T23:55:40.577Z,65.60
2023-02-13T23:58:07.019Z,61.58
